Time;durP1;ratioP1;P1;durP2;ratioP2;P2;SDS_P1;SDS_P2;PMS_P1;PMS_P2;Temp;Humidity;BMP_temperature;BMP_pressure;BME280_temperature;BME280_humidity;BME280_pressure;Samples;Min_cycle;Max_cycle;Signal;HPM_P1;HPM_P2
2022/01/17 00:01:58;;;;;;;18.30;13.20;;;2.20;25.70;;;;;;4899030;29;20741;-76
2022/01/17 00:04:24;;;;;;;18.70;12.37;;;2.20;28.50;;;;;;4898128;29;20240;-76
2022/01/17 00:06:50;;;;;;;18.63;12.07;;;2.20;22.70;;;;;;4898881;29;20724;-76
2022/01/17 00:09:15;;;;;;;16.80;12.07;;;2.30;1.70;;;;;;4898701;29;20596;-76
2022/01/17 00:11:44;;;;;;;18.57;13.27;;;2.30;1.00;;;;;;4898395;29;20636;-76
2022/01/17 00:14:14;;;;;;;18.43;11.97;;;2.30;10.50;;;;;;4898700;29;20185;-76
2022/01/17 00:16:45;;;;;;;18.87;12.03;;;2.30;3.80;;;;;;4898154;29;20196;-76
2022/01/17 00:21:37;;;;;;;17.77;11.80;;;2.40;1.00;;;;;;4898511;29;20264;-76
2022/01/17 00:24:03;;;;;;;17.17;11.90;;;2.40;1.00;;;;;;4898457;29;20242;-76
2022/01/17 00:26:29;;;;;;;18.23;12.03;;;2.50;1.00;;;;;;4898020;29;20251;-76
2022/01/17 00:28:54;;;;;;;14.87;11.43;;;2.40;1.00;;;;;;4898460;29;20646;-76
2022/01/17 00:31:20;;;;;;;16.77;11.80;;;2.30;10.00;;;;;;4898577;29;20227;-77
2022/01/17 00:33:45;;;;;;;17.60;11.93;;;2.30;23.50;;;;;;4898633;29;20188;-77
2022/01/17 00:36:11;;;;;;;18.37;11.77;;;2.30;43.40;;;;;;4898136;29;20209;-77
2022/01/17 00:38:36;;;;;;;17.37;11.73;;;2.40;50.10;;;;;;4898604;29;20189;-77
2022/01/17 00:41:02;;;;;;;17.07;11.33;;;2.40;23.00;;;;;;4898533;29;20661;-77
2022/01/17 00:43:27;;;;;;;14.93;11.00;;;2.50;9.80;;;;;;4898167;29;20220;-77
2022/01/17 00:45:53;;;;;;;16.73;11.07;;;2.50;18.20;;;;;;4898272;29;20212;-77
2022/01/17 00:48:18;;;;;;;15.37;11.27;;;2.40;39.90;;;;;;4898325;29;20185;-77
2022/01/17 00:50:44;;;;;;;16.03;11.37;;;2.20;69.50;;;;;;4898354;29;20240;-76
2022/01/17 00:53:10;;;;;;;18.93;11.27;;;2.30;98.60;;;;;;4898079;29;20185;-76
2022/01/17 00:55:38;;;;;;;16.17;10.70;;;2.40;27.70;;;;;;4897536;29;20664;-76
2022/01/17 00:58:04;;;;;;;14.43;10.43;;;2.40;46.30;;;;;;4897946;29;20181;-77
2022/01/17 01:00:31;;;;;;;15.23;10.67;;;2.40;69.20;;;;;;4897974;29;20180;-76
2022/01/17 01:02:56;;;;;;;13.90;10.17;;;2.40;63.70;;;;;;4897788;29;20216;-77
2022/01/17 01:05:22;;;;;;;16.07;10.97;;;2.50;40.60;;;;;;4897348;29;20208;-76
2022/01/17 01:07:47;;;;;;;15.27;11.47;;;2.50;16.40;;;;;;4897560;29;20244;-77
2022/01/17 01:10:14;;;;;;;15.23;11.37;;;2.40;30.10;;;;;;4897756;29;20184;-77
2022/01/17 01:12:41;;;;;;;19.03;11.20;;;2.40;35.20;;;;;;4898473;29;20279;-76
2022/01/17 01:15:13;;;;;;;13.40;9.87;;;2.40;47.00;;;;;;4897701;29;20193;-77
2022/01/17 01:17:51;;;;;;;15.23;10.50;;;2.50;43.50;;;;;;4898129;29;20661;-77
2022/01/17 01:20:33;;;;;;;15.87;10.47;;;2.50;32.90;;;;;;4898189;29;20181;-77
2022/01/17 01:28:27;;;;;;;15.07;10.53;;;2.60;12.10;;;;;;4897830;29;20244;-77
2022/01/17 01:30:55;;;;;;;14.27;10.70;;;2.60;12.00;;;;;;4897667;29;20638;-77
2022/01/17 01:33:29;;;;;;;12.10;9.07;;;2.50;35.80;;;;;;4898041;29;20184;-76
2022/01/17 01:36:05;;;;;;;14.23;10.57;;;2.50;76.80;;;;;;4898538;29;20200;-77
2022/01/17 01:38:31;;;;;;;14.43;10.13;;;2.40;97.00;;;;;;4898222;29;20184;-77
2022/01/17 01:40:57;;;;;;;18.07;10.47;;;2.30;99.90;;;;;;4897601;29;20285;-77
2022/01/17 01:43:23;;;;;;;14.47;9.77;;;2.30;99.90;;;;;;4897339;29;20668;-77
2022/01/17 01:45:50;;;;;;;12.37;10.00;;;2.20;99.90;;;;;;4897124;29;20201;-76
2022/01/17 01:48:19;;;;;;;15.77;11.13;;;2.30;99.90;;;;;;4897238;29;20758;-76
2022/01/17 01:50:46;;;;;;;14.87;10.80;;;2.30;99.90;;;;;;4897126;29;20177;-76
2022/01/17 01:53:12;;;;;;;14.23;10.87;;;2.40;99.90;;;;;;4897618;29;20271;-77
2022/01/17 01:55:38;;;;;;;18.70;11.73;;;2.40;99.90;;;;;;4896800;29;20696;-77
2022/01/17 01:58:04;;;;;;;18.63;12.37;;;2.40;99.90;;;;;;4897414;29;20176;-77
2022/01/17 02:00:30;;;;;;;15.33;11.73;;;2.40;99.90;;;;;;4897243;29;20705;-77
2022/01/17 02:02:55;;;;;;;15.73;10.93;;;2.40;99.90;;;;;;4897118;29;20220;-76
2022/01/17 02:05:21;;;;;;;13.43;9.77;;;2.30;99.90;;;;;;4896219;29;20199;-76
2022/01/17 02:07:47;;;;;;;15.20;11.17;;;2.30;99.90;;;;;;4896960;29;20202;-76
2022/01/17 02:10:13;;;;;;;17.47;12.17;;;2.20;99.90;;;;;;4896899;29;20552;-77
2022/01/17 02:12:39;;;;;;;14.90;11.27;;;2.30;99.90;;;;;;4949641;23;20253;-77
2022/01/17 02:15:05;;;;;;;14.73;10.67;;;2.30;99.90;;;;;;4953859;29;20206;-76
2022/01/17 02:17:34;;;;;;;16.07;11.47;;;2.30;99.90;;;;;;4954087;29;20647;-77
2022/01/17 02:20:09;;;;;;;17.37;11.63;;;2.30;99.90;;;;;;4954229;28;20197;-76
2022/01/17 02:22:34;;;;;;;16.53;11.83;;;2.30;99.90;;;;;;4954244;28;20526;-76
2022/01/17 02:25:00;;;;;;;15.40;11.23;;;2.30;99.90;;;;;;4953729;29;20202;-77
2022/01/17 02:27:26;;;;;;;15.50;11.53;;;2.30;99.90;;;;;;4954101;28;20648;-75
2022/01/17 02:29:51;;;;;;;16.23;11.53;;;2.30;99.90;;;;;;4953658;29;20179;-75
2022/01/17 02:32:17;;;;;;;15.83;11.60;;;2.30;99.90;;;;;;4953574;28;20183;-75
2022/01/17 02:34:44;;;;;;;16.67;11.80;;;2.50;99.90;;;;;;4953288;28;20846;-76
2022/01/17 02:37:10;;;;;;;17.10;12.33;;;2.40;99.90;;;;;;4953572;28;20269;-76
2022/01/17 02:39:37;;;;;;;16.23;11.40;;;2.40;99.90;;;;;;4953555;28;20183;-76
2022/01/17 02:42:04;;;;;;;17.50;12.43;;;2.40;99.90;;;;;;4953363;29;20705;-76
2022/01/17 02:44:30;;;;;;;18.30;13.13;;;2.30;99.90;;;;;;4953018;28;20178;-75
2022/01/17 02:46:56;;;;;;;18.60;12.40;;;2.40;99.90;;;;;;4953316;28;20194;-76
2022/01/17 02:49:21;;;;;;;16.17;12.07;;;2.50;99.90;;;;;;4953712;28;20535;-75
2022/01/17 02:51:48;;;;;;;14.93;11.40;;;2.50;99.90;;;;;;4953438;29;20660;-75
2022/01/17 02:54:15;;;;;;;18.00;12.37;;;2.40;99.90;;;;;;4953297;28;20617;-76
2022/01/17 02:56:41;;;;;;;19.60;13.07;;;2.40;99.90;;;;;;4952814;28;20672;-76
2022/01/17 02:59:07;;;;;;;17.10;12.30;;;2.40;99.90;;;;;;4953049;29;20710;-76
2022/01/17 03:01:32;;;;;;;17.13;11.63;;;2.40;99.90;;;;;;4953252;29;20638;-76
2022/01/17 03:03:58;;;;;;;15.07;11.53;;;2.30;99.90;;;;;;4953500;29;20738;-76
2022/01/17 03:06:25;;;;;;;18.90;12.07;;;2.40;99.90;;;;;;4952693;29;20232;-76
2022/01/17 03:08:51;;;;;;;16.83;11.57;;;2.40;99.90;;;;;;4953400;29;20273;-76
2022/01/17 03:11:20;;;;;;;16.97;11.70;;;2.40;99.90;;;;;;4953788;29;20224;-76
2022/01/17 03:13:47;;;;;;;19.77;12.10;;;2.50;99.90;;;;;;4953204;29;20673;-76
2022/01/17 03:16:16;;;;;;;18.27;13.10;;;2.50;99.90;;;;;;4952594;28;20203;-76
2022/01/17 03:18:45;;;;;;;16.50;11.73;;;2.40;99.90;;;;;;4953195;28;20664;-76
2022/01/17 03:21:12;;;;;;;19.80;12.33;;;2.40;99.90;;;;;;4953195;29;20182;-76
2022/01/17 03:23:39;;;;;;;18.47;12.47;;;2.50;99.90;;;;;;4953591;29;20214;-75
2022/01/17 03:26:06;;;;;;;16.57;11.40;;;2.50;99.90;;;;;;4952869;28;20670;-76
2022/01/17 03:28:32;;;;;;;17.03;12.27;;;2.50;99.90;;;;;;4953374;29;20174;-76
2022/01/17 03:30:59;;;;;;;19.17;12.03;;;2.50;99.90;;;;;;4953201;28;20178;-76
2022/01/17 03:33:25;;;;;;;19.17;12.50;;;2.50;99.90;;;;;;4953164;28;20183;-76
2022/01/17 03:35:51;;;;;;;17.10;12.10;;;2.50;99.90;;;;;;4952519;28;20209;-76
2022/01/17 03:38:20;;;;;;;17.40;12.47;;;2.50;93.40;;;;;;4953253;28;20174;-76
2022/01/17 03:40:47;;;;;;;18.30;12.17;;;2.50;96.40;;;;;;4956639;28;20186;-77
2022/01/17 03:43:13;;;;;;;17.57;12.33;;;2.40;99.90;;;;;;4956414;29;20234;-76
2022/01/17 03:45:40;;;;;;;18.87;12.63;;;2.30;99.90;;;;;;4955787;28;20669;-75
2022/01/17 03:48:06;;;;;;;18.07;12.43;;;2.20;99.90;;;;;;4956583;29;20202;-76
2022/01/17 03:50:31;;;;;;;17.10;12.20;;;2.20;99.90;;;;;;4956455;28;20174;-75
2022/01/17 03:52:57;;;;;;;19.60;12.53;;;2.30;99.90;;;;;;4956287;29;20294;-76
2022/01/17 03:55:24;;;;;;;17.13;11.97;;;2.30;99.90;;;;;;4955888;28;20644;-76
2022/01/17 03:57:51;;;;;;;18.97;11.33;;;2.40;99.90;;;;;;4956156;29;20253;-75
2022/01/17 04:00:22;;;;;;;16.97;11.33;;;2.40;99.90;;;;;;4955937;28;20184;-75
2022/01/17 04:02:48;;;;;;;17.23;11.87;;;2.40;99.90;;;;;;4956093;29;20229;-76
2022/01/17 04:05:14;;;;;;;17.00;11.80;;;2.40;99.90;;;;;;4955604;28;20273;-76
2022/01/17 04:07:39;;;;;;;15.43;11.07;;;2.30;99.90;;;;;;4956142;29;20272;-75
2022/01/17 04:10:05;;;;;;;18.17;11.73;;;2.40;99.90;;;;;;4955917;29;20175;-75
2022/01/17 04:12:31;;;;;;;16.53;11.63;;;2.40;99.90;;;;;;4955716;28;20213;-75
2022/01/17 04:14:57;;;;;;;17.83;11.17;;;2.40;99.90;;;;;;4955427;28;20194;-75
2022/01/17 04:17:29;;;;;;;17.33;11.57;;;2.30;99.90;;;;;;4956016;29;20225;-75
2022/01/17 04:20:04;;;;;;;16.77;12.17;;;2.30;99.90;;;;;;4956146;28;20178;-75
2022/01/17 04:22:34;;;;;;;17.27;12.23;;;2.20;99.90;;;;;;4938541;29;20828;-76
2022/01/17 04:25:00;;;;;;;17.00;12.33;;;2.20;99.90;;;;;;4955132;28;20226;-75
2022/01/17 04:27:25;;;;;;;19.13;11.97;;;2.20;99.90;;;;;;4955711;29;20217;-76
2022/01/17 04:29:51;;;;;;;20.20;12.37;;;2.30;99.90;;;;;;4955719;28;20186;-75
2022/01/17 04:32:17;;;;;;;15.93;11.80;;;2.20;99.90;;;;;;4955584;29;20222;-76
2022/01/17 04:34:42;;;;;;;19.30;12.33;;;2.20;99.90;;;;;;4955063;29;20179;-75
2022/01/17 04:37:09;;;;;;;17.57;12.60;;;2.20;99.90;;;;;;4955374;29;20174;-76
2022/01/17 04:39:34;;;;;;;15.03;11.67;;;2.20;99.90;;;;;;4955388;29;20249;-76
2022/01/17 04:42:02;;;;;;;16.63;12.23;;;2.10;99.90;;;;;;4955246;28;20304;-76
2022/01/17 04:47:11;;;;;;;15.77;11.37;;;2.20;99.90;;;;;;4955536;28;20674;-76
2022/01/17 04:49:37;;;;;;;18.83;12.57;;;2.20;99.90;;;;;;4955260;28;20183;-76
2022/01/17 04:52:03;;;;;;;16.23;11.60;;;2.20;99.90;;;;;;4954082;28;20186;-76
2022/01/17 04:54:40;;;;;;;16.63;11.53;;;2.20;99.90;;;;;;4954825;29;20178;-76
2022/01/17 04:57:06;;;;;;;16.73;11.47;;;2.20;99.90;;;;;;4955335;28;20209;-76
2022/01/17 04:59:32;;;;;;;16.20;11.43;;;2.20;99.90;;;;;;4960151;28;20174;-77
2022/01/17 05:01:58;;;;;;;18.67;11.70;;;2.70;99.90;;;;;;4967435;29;20226;-76
2022/01/17 05:04:23;;;;;;;19.00;12.47;;;2.20;99.90;;;;;;4965411;29;20265;-76
2022/01/17 05:06:49;;;;;;;15.67;10.53;;;2.20;99.90;;;;;;4964458;29;20271;-76
2022/01/17 05:09:14;;;;;;;17.47;11.20;;;2.60;99.90;;;;;;4957695;28;20182;-76
2022/01/17 05:11:41;;;;;;;18.83;11.37;;;2.20;99.90;;;;;;4954790;29;20178;-76
2022/01/17 05:14:07;;;;;;;18.30;11.43;;;2.30;99.90;;;;;;4955152;28;20182;-76
2022/01/17 05:16:38;;;;;;;17.37;10.97;;;2.30;99.90;;;;;;4954924;29;20201;-76
2022/01/17 05:21:47;;;;;;;19.17;12.07;;;2.30;99.90;;;;;;4959901;28;20269;-75
2022/01/17 05:24:13;;;;;;;17.17;11.23;;;2.30;99.90;;;;;;4944906;29;20656;-75
2022/01/17 05:26:38;;;;;;;23.50;15.03;;;2.30;99.90;;;;;;4961637;28;20261;-75
2022/01/17 05:29:04;;;;;;;31.27;18.30;;;2.30;99.90;;;;;;4961161;29;20178;-75
2022/01/17 05:31:29;;;;;;;27.37;15.67;;;2.30;99.90;;;;;;4958967;28;20178;-75
2022/01/17 05:33:55;;;;;;;28.17;15.50;;;2.40;99.90;;;;;;4960518;29;20183;-75
2022/01/17 05:36:21;;;;;;;23.33;14.40;;;2.30;99.90;;;;;;4960408;29;20224;-75
2022/01/17 05:38:46;;;;;;;18.53;13.13;;;2.30;99.90;;;;;;4960315;28;20241;-75
2022/01/17 05:41:12;;;;;;;17.60;11.63;;;2.30;99.90;;;;;;4960535;28;20604;-75
2022/01/17 05:43:37;;;;;;;15.60;11.30;;;2.30;99.90;;;;;;4954508;28;20214;-75
2022/01/17 05:46:03;;;;;;;17.70;11.00;;;2.30;99.90;;;;;;4956946;28;20202;-75
2022/01/17 05:48:28;;;;;;;15.73;11.27;;;2.20;99.90;;;;;;4960482;29;20190;-75
2022/01/17 05:50:54;;;;;;;20.37;11.67;;;2.20;99.90;;;;;;4960257;28;20186;-75
2022/01/17 05:53:19;;;;;;;16.80;11.77;;;2.20;99.90;;;;;;4960638;28;20182;-75
2022/01/17 05:55:45;;;;;;;18.30;11.17;;;2.30;99.90;;;;;;4959346;28;20195;-75
2022/01/17 05:58:12;;;;;;;17.53;10.83;;;2.30;99.90;;;;;;4960174;29;20179;-75
2022/01/17 06:00:38;;;;;;;17.57;10.50;;;2.30;99.90;;;;;;4964374;28;20183;-75
2022/01/17 06:03:03;;;;;;;17.73;10.57;;;2.30;99.90;;;;;;4965326;28;20245;-75
2022/01/17 06:05:29;;;;;;;16.13;10.57;;;2.40;99.90;;;;;;4965605;28;20250;-76
2022/01/17 06:07:55;;;;;;;17.00;10.63;;;2.30;99.90;;;;;;4964287;29;20181;-76
2022/01/17 06:10:20;;;;;;;17.70;9.83;;;2.30;99.90;;;;;;4961303;28;20723;-75
2022/01/17 06:12:46;;;;;;;13.10;9.77;;;2.30;99.90;;;;;;4957020;29;20195;-76
2022/01/17 06:15:11;;;;;;;12.43;9.30;;;2.30;99.90;;;;;;4956193;28;20257;-75
2022/01/17 06:17:37;;;;;;;13.40;9.87;;;2.30;99.90;;;;;;4959672;28;20175;-75
2022/01/17 06:20:04;;;;;;;12.27;9.23;;;2.30;99.90;;;;;;4959396;28;20189;-75
2022/01/17 06:22:30;;;;;;;14.70;10.13;;;2.30;99.90;;;;;;4953631;28;20218;-75
2022/01/17 06:24:55;;;;;;;13.07;9.50;;;2.30;99.90;;;;;;4954876;28;20194;-75
2022/01/17 06:27:21;;;;;;;13.30;9.30;;;2.50;99.90;;;;;;4959675;28;20246;-75
2022/01/17 06:29:47;;;;;;;14.30;9.50;;;2.50;99.90;;;;;;4959320;28;20179;-75
2022/01/17 06:32:12;;;;;;;12.63;9.27;;;2.50;99.90;;;;;;4960860;29;20178;-75
2022/01/17 06:34:38;;;;;;;13.43;9.53;;;2.50;99.90;;;;;;4959528;29;20178;-75
2022/01/17 06:37:03;;;;;;;14.70;8.87;;;2.50;99.90;;;;;;4959784;28;20178;-77
2022/01/17 06:39:29;;;;;;;13.40;9.47;;;2.60;99.90;;;;;;4962018;28;20233;-76
2022/01/17 06:41:55;;;;;;;16.67;9.63;;;2.70;99.90;;;;;;4958103;28;20214;-77
2022/01/17 06:44:20;;;;;;;13.50;9.40;;;2.90;99.90;;;;;;4953273;29;20170;-76
2022/01/17 06:46:46;;;;;;;14.80;9.90;;;2.80;99.90;;;;;;4953731;28;20687;-77
2022/01/17 06:49:12;;;;;;;14.30;8.93;;;2.90;99.90;;;;;;4954145;29;20258;-77
2022/01/17 06:51:38;;;;;;;13.60;9.00;;;3.00;99.90;;;;;;4953291;29;20182;-75
2022/01/17 06:54:03;;;;;;;11.63;9.17;;;2.90;99.90;;;;;;4953429;28;20198;-76
2022/01/17 06:56:29;;;;;;;12.63;9.00;;;2.80;99.90;;;;;;4952804;28;20235;-75
2022/01/17 06:58:55;;;;;;;13.00;9.00;;;2.80;99.90;;;;;;4953405;29;20205;-75
2022/01/17 07:01:21;;;;;;;11.57;8.57;;;2.70;99.90;;;;;;4953556;28;20265;-76
2022/01/17 07:03:49;;;;;;;14.27;9.73;;;2.70;99.90;;;;;;4953336;28;20222;-75
2022/01/17 07:06:15;;;;;;;19.73;11.53;;;2.70;99.90;;;;;;4952795;28;20253;-75
2022/01/17 07:08:40;;;;;;;25.83;19.10;;;2.70;99.90;;;;;;4953246;28;20190;-75
2022/01/17 07:11:06;;;;;;;21.80;15.30;;;2.70;99.90;;;;;;4953217;29;20178;-76
2022/01/17 07:13:32;;;;;;;20.33;13.00;;;2.80;99.90;;;;;;4935847;28;20682;-75
2022/01/17 07:15:57;;;;;;;14.23;10.80;;;2.80;99.90;;;;;;4956358;29;20242;-76
2022/01/17 07:18:23;;;;;;;12.10;9.23;;;2.80;99.90;;;;;;4957183;29;20270;-76
2022/01/17 07:20:48;;;;;;;12.07;8.23;;;2.80;99.90;;;;;;4957017;29;20550;-76
2022/01/17 07:23:14;;;;;;;11.63;8.40;;;2.80;99.90;;;;;;4956830;28;20221;-75
2022/01/17 07:25:40;;;;;;;14.83;9.03;;;2.80;99.90;;;;;;4956197;28;20209;-76
2022/01/17 07:28:10;;;;;;;12.63;9.80;;;2.80;99.90;;;;;;4956540;28;20179;-75
2022/01/17 07:30:37;;;;;;;29.40;25.83;;;2.80;99.90;;;;;;4956915;28;20179;-75
2022/01/17 07:33:05;;;;;;;26.37;21.63;;;2.90;99.90;;;;;;4956736;28;20185;-75
2022/01/17 07:35:30;;;;;;;19.70;17.63;;;2.70;99.90;;;;;;4956076;29;20230;-75
2022/01/17 07:37:56;;;;;;;13.33;10.27;;;2.80;99.90;;;;;;4956547;29;20229;-75
2022/01/17 07:40:22;;;;;;;11.60;8.50;;;2.70;99.90;;;;;;4956555;28;20209;-75
2022/01/17 07:42:47;;;;;;;10.73;8.47;;;2.80;99.90;;;;;;4956250;28;20298;-74
2022/01/17 07:45:15;;;;;;;11.90;8.20;;;2.90;99.90;;;;;;4955708;29;20679;-75
2022/01/17 07:50:20;;;;;;;11.83;8.83;;;3.00;99.90;;;;;;4956486;29;20186;-74
2022/01/17 07:52:47;;;;;;;10.90;7.90;;;3.10;99.90;;;;;;4956289;28;20190;-75
2022/01/17 07:55:13;;;;;;;13.43;7.87;;;3.10;99.90;;;;;;4955643;28;20199;-75
2022/01/17 07:57:41;;;;;;;10.03;7.30;;;3.10;99.90;;;;;;4956550;28;20191;-75
2022/01/17 08:00:09;;;;;;;10.30;7.77;;;3.20;99.90;;;;;;4956299;28;20182;-75
2022/01/17 08:02:35;;;;;;;10.47;7.57;;;3.20;99.90;;;;;;4955943;29;20731;-75
2022/01/17 08:05:02;;;;;;;11.10;7.43;;;3.20;99.90;;;;;;4955544;29;20322;-75
2022/01/17 08:07:28;;;;;;;9.37;6.80;;;3.30;99.90;;;;;;4956139;28;20265;-75
2022/01/17 08:09:53;;;;;;;8.97;6.73;;;3.30;99.90;;;;;;4955830;28;20225;-75
2022/01/17 08:12:19;;;;;;;8.67;6.77;;;3.40;99.90;;;;;;4967149;23;20314;-82
2022/01/17 08:14:44;;;;;;;8.00;6.23;;;3.40;99.90;;;;;;4943236;29;20206;-82
2022/01/17 08:17:11;;;;;;;10.17;6.50;;;3.40;99.90;;;;;;4943881;29;20179;-83
2022/01/17 08:19:37;;;;;;;9.17;6.00;;;3.40;99.90;;;;;;4944514;29;20183;-82
2022/01/17 08:22:05;;;;;;;9.33;6.50;;;3.40;99.90;;;;;;4942819;29;20222;-82
2022/01/17 08:24:32;;;;;;;7.37;5.80;;;3.50;99.90;;;;;;4942616;29;20183;-82
2022/01/17 08:26:58;;;;;;;8.20;6.40;;;3.50;99.90;;;;;;4943234;29;20182;-81
2022/01/17 08:29:25;;;;;;;11.57;7.03;;;3.50;99.90;;;;;;4943319;29;20206;-81
2022/01/17 08:31:51;;;;;;;8.60;6.53;;;3.60;99.90;;;;;;4925666;29;20253;-80
2022/01/17 08:34:17;;;;;;;7.37;6.00;;;3.70;99.90;;;;;;4943921;29;20183;-82
2022/01/17 08:36:44;;;;;;;8.30;6.33;;;3.60;99.90;;;;;;4942876;29;20207;-80
2022/01/17 08:39:10;;;;;;;6.83;5.60;;;3.70;99.90;;;;;;4943595;29;20179;-81
2022/01/17 08:41:37;;;;;;;7.43;5.50;;;3.70;99.90;;;;;;4943189;29;20183;-80
2022/01/17 08:44:03;;;;;;;9.00;5.30;;;3.70;99.90;;;;;;4943641;29;20191;-80
2022/01/17 08:46:28;;;;;;;5.87;4.80;;;3.80;99.90;;;;;;4942187;29;20230;-80
2022/01/17 08:48:54;;;;;;;7.83;5.13;;;3.80;99.90;;;;;;4941607;29;20183;-81
2022/01/17 08:51:20;;;;;;;6.50;5.03;;;3.90;99.90;;;;;;4939880;29;20334;-80
2022/01/17 08:53:46;;;;;;;6.53;5.20;;;3.90;99.90;;;;;;4940268;29;20213;-80
2022/01/17 08:56:11;;;;;;;6.30;4.83;;;4.00;99.90;;;;;;4941417;29;20203;-79
2022/01/17 08:58:37;;;;;;;6.20;5.10;;;4.00;99.90;;;;;;4941232;29;20194;-80
2022/01/17 09:01:03;;;;;;;7.00;4.87;;;4.10;99.90;;;;;;4940765;29;20695;-80
2022/01/17 09:03:29;;;;;;;8.03;5.37;;;4.20;99.90;;;;;;4940422;29;20752;-79
2022/01/17 09:05:55;;;;;;;7.00;4.90;;;4.20;99.90;;;;;;4942573;29;20199;-80
2022/01/17 09:08:21;;;;;;;5.97;5.13;;;4.30;99.90;;;;;;4941883;29;20211;-80
2022/01/17 09:10:48;;;;;;;5.63;4.70;;;4.40;99.90;;;;;;4940491;29;20266;-81
2022/01/17 09:13:14;;;;;;;6.30;5.00;;;4.40;99.90;;;;;;4940611;29;20199;-81
2022/01/17 09:15:39;;;;;;;7.40;4.87;;;4.40;93.80;;;;;;4940813;29;20253;-80
2022/01/17 09:18:06;;;;;;;5.50;4.63;;;4.50;54.30;;;;;;4940872;29;20187;-82
2022/01/17 09:20:34;;;;;;;7.07;4.90;;;4.70;24.50;;;;;;4941881;29;20186;-80
2022/01/17 09:23:03;;;;;;;5.60;4.63;;;4.90;1.00;;;;;;4943496;29;20217;-80
2022/01/17 09:25:29;;;;;;;6.83;5.17;;;5.60;1.00;;;;;;4945162;29;20196;-79
2022/01/17 09:27:55;;;;;;;5.60;4.50;;;5.90;1.00;;;;;;4941459;29;20662;-83
2022/01/17 09:30:20;;;;;;;7.73;4.70;;;5.70;1.00;;;;;;4942258;29;20258;-81
2022/01/17 09:32:46;;;;;;;7.00;4.33;;;5.60;1.00;;;;;;4942361;29;20194;-80
2022/01/17 09:35:12;;;;;;;6.23;5.13;;;5.60;1.00;;;;;;4942628;29;20207;-81
2022/01/17 09:37:39;;;;;;;5.97;4.93;;;5.40;1.00;;;;;;4942837;29;20194;-82
2022/01/17 09:40:06;;;;;;;7.97;5.30;;;5.40;1.00;;;;;;4943480;29;20183;-79
2022/01/17 09:42:36;;;;;;;8.00;4.83;;;5.60;1.00;;;;;;4944398;29;20207;-83
2022/01/17 09:45:12;;;;;;;6.30;4.97;;;5.80;1.00;;;;;;4932089;29;20199;-80
2022/01/17 09:47:39;;;;;;;6.87;5.47;;;5.50;1.00;;;;;;4949383;29;20230;-82
2022/01/17 09:50:09;;;;;;;7.10;5.40;;;5.40;1.00;;;;;;4956397;28;20202;-84
2022/01/17 09:52:38;;;;;;;7.80;5.50;;;5.20;1.00;;;;;;4952450;28;20179;-83
2022/01/17 09:55:10;;;;;;;6.57;5.47;;;5.20;1.00;;;;;;4933760;29;20211;-80
2022/01/17 09:57:48;;;;;;;9.00;6.07;;;5.20;1.00;;;;;;4949489;29;20234;-82
2022/01/17 10:00:16;;;;;;;7.27;5.67;;;5.20;1.00;;;;;;4940020;29;20190;-81
2022/01/17 10:02:42;;;;;;;7.47;5.20;;;5.50;1.00;;;;;;4940141;29;20229;-78
2022/01/17 10:05:08;;;;;;;7.13;5.33;;;5.20;1.00;;;;;;4939140;29;20199;-79
2022/01/17 10:07:53;;;;;;;8.30;5.50;;;5.30;1.00;;;;;;4939989;29;20641;-79
2022/01/17 10:10:51;;;;;;;7.80;5.50;;;5.50;1.00;;;;;;4940571;29;20175;-79
2022/01/17 10:13:20;;;;;;;6.93;4.93;;;5.60;1.00;;;;;;4940219;29;20262;-82
2022/01/17 10:16:18;;;;;;;7.83;4.60;;;5.50;1.00;;;;;;4940353;29;20210;-80
2022/01/17 10:19:02;;;;;;;4.37;3.87;;;5.80;1.00;;;;;;4912812;29;20191;-80
2022/01/17 10:21:41;;;;;;;5.07;4.07;;;5.80;1.00;;;;;;4940294;29;20190;-78
2022/01/17 10:24:24;;;;;;;5.43;3.90;;;5.90;1.00;;;;;;4940205;29;20234;-79
2022/01/17 10:34:55;;;;;;;5.60;4.07;;;6.60;1.00;;;;;;4939513;29;20567;-78
2022/01/17 10:37:23;;;;;;;4.83;3.87;;;6.70;99.90;;;;;;4940202;29;20183;-81
2022/01/17 10:40:12;;;;;;;4.87;3.53;;;6.50;99.90;;;;;;4940262;29;20214;-81
2022/01/17 10:42:42;;;;;;;6.77;4.10;;;6.40;99.90;;;;;;4940147;29;20298;-78
2022/01/17 10:45:08;;;;;;;7.47;3.90;;;6.40;99.90;;;;;;4942958;29;20199;-79
2022/01/17 10:47:37;;;;;;;4.53;4.00;;;6.60;1.00;;;;;;4941116;29;20211;-80
2022/01/17 10:50:28;;;;;;;6.53;4.33;;;6.70;99.90;;;;;;4940423;29;20182;-81
2022/01/17 10:53:03;;;;;;;6.47;4.20;;;6.50;25.60;;;;;;4940817;29;20548;-79
2022/01/17 10:55:31;;;;;;;6.57;4.50;;;6.50;99.90;;;;;;4939567;29;20230;-77
2022/01/17 10:58:02;;;;;;;5.67;4.50;;;6.30;99.90;;;;;;4940921;29;20171;-77
2022/01/17 11:00:34;;;;;;;6.57;4.30;;;6.10;1.00;;;;;;4940343;29;20183;-77
2022/01/17 11:03:03;;;;;;;6.13;4.50;;;5.90;1.00;;;;;;4940225;29;20217;-81
2022/01/17 11:05:31;;;;;;;6.80;4.43;;;6.00;1.00;;;;;;4938680;29;20210;-79
2022/01/17 11:08:00;;;;;;;5.93;4.57;;;5.90;99.90;;;;;;4940247;29;20615;-79
2022/01/17 11:10:31;;;;;;;8.53;4.60;;;5.90;1.00;;;;;;4940282;29;20183;-79
2022/01/17 11:12:58;;;;;;;6.43;4.73;;;5.80;1.00;;;;;;4940341;29;20250;-80
2022/01/17 11:15:25;;;;;;;5.47;4.63;;;5.80;1.00;;;;;;4939690;29;20195;-79
2022/01/17 11:17:53;;;;;;;6.90;5.37;;;5.80;1.00;;;;;;4940438;29;20699;-78
2022/01/17 11:20:21;;;;;;;6.03;4.50;;;5.80;1.00;;;;;;4940886;29;20189;-79
2022/01/17 11:22:49;;;;;;;6.83;5.13;;;5.70;1.00;;;;;;4940831;29;20215;-77
2022/01/17 11:25:28;;;;;;;6.00;4.40;;;5.70;1.00;;;;;;4940532;29;20203;-79
2022/01/17 11:27:54;;;;;;;7.60;4.93;;;5.60;1.00;;;;;;4940608;29;20183;-79
2022/01/17 11:30:21;;;;;;;6.00;4.33;;;5.50;1.00;;;;;;4940602;29;20218;-82
2022/01/17 11:32:49;;;;;;;6.37;4.57;;;5.50;1.00;;;;;;4940301;29;20254;-81
2022/01/17 11:35:17;;;;;;;7.00;5.10;;;5.70;1.00;;;;;;4939583;29;20191;-81
2022/01/17 11:37:47;;;;;;;7.60;4.97;;;5.60;1.00;;;;;;4940777;29;20307;-84
2022/01/17 11:40:14;;;;;;;9.40;5.63;;;5.60;1.00;;;;;;4939739;29;20171;-79
2022/01/17 11:42:48;;;;;;;7.73;5.33;;;5.50;1.00;;;;;;4941695;29;20211;-78
2022/01/17 11:45:22;;;;;;;8.20;4.77;;;5.50;1.00;;;;;;4939673;29;20732;-83
2022/01/17 11:48:00;;;;;;;6.63;4.80;;;5.60;1.00;;;;;;4941168;29;20190;-81
2022/01/17 11:50:28;;;;;;;5.70;4.63;;;5.60;1.00;;;;;;4939927;29;20810;-78
2022/01/17 11:52:55;;;;;;;5.37;4.20;;;5.60;1.00;;;;;;4940635;29;20179;-82
2022/01/17 11:55:41;;;;;;;5.10;3.77;;;5.60;1.00;;;;;;4940007;29;20202;-80
2022/01/17 11:58:41;;;;;;;6.27;4.13;;;5.50;1.00;;;;;;4940108;29;20262;-82
2022/01/17 12:01:17;;;;;;;5.03;3.43;;;5.50;1.00;;;;;;4939124;29;20179;-81
2022/01/17 12:03:47;;;;;;;3.97;3.33;;;5.60;1.00;;;;;;4939049;29;20218;-80
2022/01/17 12:06:32;;;;;;;3.53;2.70;;;5.50;1.00;;;;;;4938778;29;20298;-82
2022/01/17 12:09:24;;;;;;;5.57;3.40;;;5.40;1.00;;;;;;4939220;29;20176;-80
2022/01/17 12:11:56;;;;;;;3.60;3.20;;;5.00;99.90;;;;;;4941409;29;20175;-79
2022/01/17 12:14:27;;;;;;;5.37;3.20;;;5.00;99.90;;;;;;4940537;29;20567;-83
2022/01/17 12:16:54;;;;;;;7.03;5.00;;;4.90;99.90;;;;;;4941372;29;20269;-79
2022/01/17 12:19:20;;;;;;;6.33;3.40;;;4.90;99.90;;;;;;4951404;29;20179;-82
2022/01/17 12:22:03;;;;;;;3.30;3.00;;;5.00;99.90;;;;;;4956087;28;20194;-81
2022/01/17 12:24:37;;;;;;;5.13;3.30;;;5.00;99.90;;;;;;4948631;29;20196;-80
2022/01/17 12:27:12;;;;;;;3.10;2.80;;;5.00;99.90;;;;;;4944063;29;20203;-79
2022/01/17 12:29:47;;;;;;;3.40;3.10;;;5.10;99.90;;;;;;4938938;29;20183;-79
2022/01/17 12:32:25;;;;;;;3.83;3.00;;;5.10;99.90;;;;;;4940987;29;20206;-79
2022/01/17 12:35:04;;;;;;;3.63;3.00;;;5.30;99.90;;;;;;4943548;29;20198;-79
2022/01/17 12:37:35;;;;;;;3.93;3.23;;;5.30;99.70;;;;;;4946143;29;20175;-83
2022/01/17 12:40:14;;;;;;;5.70;3.43;;;5.40;96.50;;;;;;4942899;29;20179;-79
2022/01/17 12:42:58;;;;;;;5.73;3.80;;;5.40;79.40;;;;;;4947688;29;20195;-78
2022/01/17 12:45:30;;;;;;;4.50;4.10;;;5.30;1.00;;;;;;4954100;29;20195;-84
2022/01/17 12:47:58;;;;;;;4.63;4.03;;;5.30;13.40;;;;;;4956781;28;20213;-81
2022/01/17 12:50:26;;;;;;;4.70;3.63;;;5.30;22.90;;;;;;4953918;29;20175;-79
2022/01/17 12:52:54;;;;;;;5.30;4.00;;;5.40;2.80;;;;;;4956888;29;20571;-83
2022/01/17 12:55:20;;;;;;;5.73;4.50;;;5.40;1.00;;;;;;4938844;29;20660;-85
2022/01/17 12:57:46;;;;;;;4.90;4.17;;;5.50;1.00;;;;;;4938095;29;20188;-80
2022/01/17 13:00:18;;;;;;;4.53;3.73;;;5.50;1.00;;;;;;4935594;29;20268;-79
2022/01/17 13:02:50;;;;;;;4.83;4.33;;;5.50;1.00;;;;;;4930561;29;20200;-82
2022/01/17 13:05:24;;;;;;;5.10;4.20;;;5.60;1.00;;;;;;4932187;29;20206;-81
2022/01/17 13:07:51;;;;;;;6.10;4.67;;;5.60;1.00;;;;;;4929052;29;20184;-83
2022/01/17 13:10:16;;;;;;;4.73;4.30;;;5.70;1.00;;;;;;4928349;29;20234;-78
2022/01/17 13:12:42;;;;;;;3.63;3.23;;;5.70;1.00;;;;;;4927334;29;20637;-80
2022/01/17 13:15:11;;;;;;;4.23;3.83;;;5.80;1.00;;;;;;4926152;29;20255;-86
2022/01/17 13:17:38;;;;;;;5.53;3.60;;;5.90;1.00;;;;;;4928936;29;20203;-80